Time;durP1;ratioP1;P1;durP2;ratioP2;P2;SDS_P1;SDS_P2;PMS_P1;PMS_P2;Temp;Humidity;BMP_temperature;BMP_pressure;BME280_temperature;BME280_humidity;BME280_pressure;Samples;Min_cycle;Max_cycle;Signal;HPM_P1;HPM_P2
2022/07/01 00:00:11;;;;;;;4.00;3.40;;;;;;;25.56;50.57;100853.16;4998808;28;97340;-51
2022/07/01 00:02:37;;;;;;;3.40;3.10;;;;;;;25.49;50.80;100854.81;4995665;28;97583;-49
2022/07/01 00:05:02;;;;;;;3.00;2.80;;;;;;;25.46;50.92;100867.28;4996825;28;97378;-50
2022/07/01 00:07:28;;;;;;;4.93;3.27;;;;;;;25.45;50.74;100874.22;4997807;28;98614;-49
2022/07/01 00:09:53;;;;;;;5.70;3.40;;;;;;;25.40;51.08;100875.25;4999753;28;98313;-49
2022/07/01 00:12:19;;;;;;;3.20;2.90;;;;;;;25.36;51.12;100874.94;5000047;28;97067;-52
2022/07/01 00:14:44;;;;;;;4.27;2.77;;;;;;;25.30;50.95;100877.28;5001937;28;97062;-49
2022/07/01 00:17:10;;;;;;;3.20;3.00;;;;;;;25.24;51.12;100871.97;4997459;28;97652;-50
2022/07/01 00:19:35;;;;;;;2.60;2.43;;;;;;;25.19;51.24;100873.00;4997056;28;97350;-51
2022/07/01 00:22:00;;;;;;;4.30;3.13;;;;;;;25.14;51.50;100876.09;5000594;28;96986;-50
2022/07/01 00:24:26;;;;;;;4.20;2.70;;;;;;;25.05;51.44;100877.53;4996543;28;96978;-51
2022/07/01 00:26:52;;;;;;;3.57;2.63;;;;;;;25.01;51.58;100896.22;5000782;28;96984;-51
2022/07/01 00:29:18;;;;;;;3.37;3.07;;;;;;;24.98;51.50;100903.78;4994168;28;97079;-51
2022/07/01 00:31:43;;;;;;;4.13;3.00;;;;;;;24.94;51.74;100897.09;5001385;28;96969;-49
2022/07/01 00:34:08;;;;;;;3.33;3.13;;;;;;;24.89;51.52;100903.72;5001088;28;97500;-52
2022/07/01 00:36:34;;;;;;;2.70;2.50;;;;;;;24.84;51.62;100905.47;5000230;28;96925;-50
2022/07/01 00:38:59;;;;;;;2.63;2.43;;;;;;;24.79;51.96;100909.31;5003216;28;98454;-49
2022/07/01 00:41:24;;;;;;;2.73;2.53;;;;;;;24.70;51.92;100904.38;4991773;28;96795;-52
2022/07/01 00:43:50;;;;;;;2.77;2.57;;;;;;;24.65;52.00;100913.81;5001653;28;97178;-50
2022/07/01 00:46:16;;;;;;;3.20;2.67;;;;;;;24.58;51.85;100894.97;4999617;28;96796;-53
2022/07/01 00:48:42;;;;;;;2.53;2.43;;;;;;;24.53;52.22;100893.91;4992793;28;96844;-50
2022/07/01 00:51:07;;;;;;;3.13;2.33;;;;;;;24.45;52.13;100906.59;4988862;28;97190;-51
2022/07/01 00:53:33;;;;;;;2.50;2.40;;;;;;;24.39;52.20;100909.69;5000358;28;97398;-50
2022/07/01 00:55:58;;;;;;;3.10;2.73;;;;;;;24.39;52.07;100911.75;5010631;28;97090;-51
2022/07/01 00:58:28;;;;;;;2.40;2.20;;;;;;;24.37;52.33;100915.16;5002304;28;97340;-50
2022/07/01 01:00:54;;;;;;;2.60;2.40;;;;;;;24.39;52.35;100925.81;5005661;28;98524;-51
2022/07/01 01:03:19;;;;;;;3.27;2.53;;;;;;;24.33;52.26;100919.72;5001491;28;98669;-49
2022/07/01 01:05:44;;;;;;;4.00;2.43;;;;;;;24.29;52.57;100927.81;4999931;28;98150;-52
2022/07/01 01:08:11;;;;;;;2.57;2.40;;;;;;;24.27;52.43;100930.47;4997975;28;97154;-50
2022/07/01 01:10:37;;;;;;;3.10;2.67;;;;;;;24.25;52.56;100924.69;4999893;28;97349;-51
2022/07/01 01:13:03;;;;;;;2.60;2.40;;;;;;;24.20;52.70;100934.13;4981154;28;96818;-52
2022/07/01 01:15:30;;;;;;;3.57;2.20;;;;;;;24.17;52.75;100924.03;5000201;28;98567;-51
2022/07/01 01:17:55;;;;;;;1.97;1.87;;;;;;;24.13;52.78;100918.84;5001673;28;96916;-51
2022/07/01 01:20:21;;;;;;;2.13;1.90;;;;;;;24.12;52.69;100910.97;5009703;28;96893;-49
2022/07/01 01:22:48;;;;;;;2.13;2.00;;;;;;;24.12;52.50;100916.59;5001420;28;97091;-48
2022/07/01 01:25:14;;;;;;;2.10;2.00;;;;;;;24.11;52.88;100924.31;5001531;28;98551;-52
2022/07/01 01:27:39;;;;;;;2.07;1.43;;;;;;;24.09;52.62;100918.50;4999510;28;96922;-51
2022/07/01 01:30:06;;;;;;;1.90;1.70;;;;;;;24.07;52.66;100923.97;5001734;28;97061;-52
2022/07/01 01:32:32;;;;;;;1.73;1.63;;;;;;;24.04;52.68;100927.19;5001170;28;96768;-51
2022/07/01 01:34:57;;;;;;;3.43;1.87;;;;;;;23.95;52.95;100939.09;5001419;28;97458;-51
2022/07/01 01:37:22;;;;;;;1.93;1.83;;;;;;;23.85;52.86;100942.56;5007716;28;97434;-52
2022/07/01 01:39:48;;;;;;;2.13;1.93;;;;;;;23.80;53.05;100945.63;4999243;28;97398;-51
2022/07/01 01:42:13;;;;;;;1.67;1.57;;;;;;;23.78;52.76;100946.22;5001759;28;96685;-51
2022/07/01 01:44:38;;;;;;;1.70;1.60;;;;;;;23.72;53.08;100959.00;5002038;28;97823;-52
2022/07/01 01:47:04;;;;;;;2.10;1.83;;;;;;;23.65;52.79;100963.38;4998643;28;96772;-52
2022/07/01 01:49:29;;;;;;;2.37;2.17;;;;;;;23.53;52.99;100965.19;4999477;28;97272;-52
2022/07/01 01:51:57;;;;;;;2.03;1.93;;;;;;;23.44;53.21;100965.06;4992889;28;97006;-51
2022/07/01 01:54:23;;;;;;;2.20;2.00;;;;;;;23.41;53.10;100974.66;5004155;28;97373;-49
2022/07/01 01:56:48;;;;;;;2.30;2.20;;;;;;;23.34;53.33;100975.47;5002771;28;97236;-52
2022/07/01 01:59:13;;;;;;;3.10;2.10;;;;;;;23.32;53.43;100973.22;5002827;28;96935;-50
2022/07/01 02:01:39;;;;;;;2.10;2.00;;;;;;;23.27;53.22;100976.97;5009396;28;97340;-52
2022/07/01 02:04:05;;;;;;;4.50;2.50;;;;;;;23.21;53.57;100979.28;4998315;28;97549;-52
2022/07/01 02:06:30;;;;;;;2.93;2.70;;;;;;;23.19;53.33;100987.53;4997083;28;97276;-52
2022/07/01 02:08:56;;;;;;;2.43;2.27;;;;;;;23.11;53.36;100979.16;5000105;28;97120;-51
2022/07/01 02:11:21;;;;;;;5.30;3.23;;;;;;;23.11;53.47;100984.03;4994904;28;97350;-52
2022/07/01 02:13:46;;;;;;;2.50;2.27;;;;;;;23.07;53.30;100973.19;4998918;28;98981;-52
2022/07/01 02:16:12;;;;;;;2.63;2.43;;;;;;;23.02;53.59;100962.22;5002561;28;96935;-52
2022/07/01 02:18:37;;;;;;;2.33;2.00;;;;;;;22.99;53.50;100961.28;5004201;28;97328;-52
2022/07/01 02:21:02;;;;;;;2.87;2.70;;;;;;;22.92;53.62;100975.38;4987746;28;97201;-52
2022/07/01 02:23:29;;;;;;;3.13;2.93;;;;;;;22.86;53.61;100989.63;4999848;28;97126;-52
2022/07/01 02:25:54;;;;;;;3.13;2.93;;;;;;;22.86;53.71;101000.09;5002369;28;97153;-52
2022/07/01 02:28:20;;;;;;;3.53;3.23;;;;;;;22.84;53.48;100995.06;4994973;28;97027;-52
2022/07/01 02:30:45;;;;;;;3.00;2.67;;;;;;;22.80;53.82;100991.16;4999620;28;97189;-51
2022/07/01 02:33:11;;;;;;;2.63;2.53;;;;;;;22.77;53.59;100997.91;4998544;28;97411;-52
2022/07/01 02:35:39;;;;;;;2.20;2.10;;;;;;;22.74;53.64;101004.66;4998394;28;97169;-52
2022/07/01 02:38:06;;;;;;;3.23;2.83;;;;;;;22.72;53.66;101001.66;4983296;28;97231;-52
2022/07/01 02:40:32;;;;;;;2.47;2.37;;;;;;;22.71;53.82;101017.03;5000564;28;97017;-52
2022/07/01 02:42:58;;;;;;;2.00;1.90;;;;;;;22.71;53.63;101017.03;5004324;28;101726;-52
2022/07/01 02:45:25;;;;;;;2.60;2.50;;;;;;;22.70;53.58;101040.75;5003767;28;97342;-52
2022/07/01 02:47:50;;;;;;;1.90;1.80;;;;;;;22.67;53.68;101039.13;4998013;28;97433;-52
2022/07/01 02:50:18;;;;;;;2.67;2.47;;;;;;;22.66;53.76;101043.22;5001127;28;96974;-52
2022/07/01 02:52:43;;;;;;;2.17;2.07;;;;;;;22.62;53.69;101049.22;4991992;28;97365;-52
2022/07/01 02:55:11;;;;;;;2.37;2.27;;;;;;;22.57;53.70;101046.59;5005575;28;97181;-52
2022/07/01 02:57:38;;;;;;;2.33;2.23;;;;;;;22.54;53.78;101040.06;4994378;28;97541;-52
2022/07/01 03:00:05;;;;;;;2.27;2.17;;;;;;;22.49;53.78;101041.03;5002114;28;97257;-51
2022/07/01 03:02:31;;;;;;;2.53;2.43;;;;;;;22.44;53.78;101053.19;4992459;28;97573;-51
2022/07/01 03:04:57;;;;;;;2.17;2.07;;;;;;;22.36;53.95;101058.84;5002020;28;96748;-52
2022/07/01 03:07:22;;;;;;;2.00;1.90;;;;;;;22.33;54.03;101045.94;4993458;28;97667;-51
2022/07/01 03:09:48;;;;;;;2.17;2.07;;;;;;;22.32;54.00;101044.44;4999564;28;97312;-51
2022/07/01 03:12:25;;;;;;;1.63;1.53;;;;;;;22.27;53.96;101051.00;4995728;28;98822;-51
2022/07/01 03:15:05;;;;;;;1.67;1.57;;;;;;;22.21;54.63;101042.03;4999289;28;97558;-51
2022/07/01 03:17:32;;;;;;;2.33;1.37;;;;;;;22.17;54.09;101036.06;4998804;28;97245;-51
2022/07/01 03:19:59;;;;;;;0.97;0.97;;;;;;;22.21;54.08;101044.09;4998234;28;97308;-51
2022/07/01 03:22:27;;;;;;;1.43;1.33;;;;;;;22.16;54.05;101045.78;4997455;28;97362;-51
2022/07/01 03:24:53;;;;;;;1.30;1.20;;;;;;;22.16;54.15;101045.78;4999564;28;97462;-50
2022/07/01 03:27:20;;;;;;;1.20;1.10;;;;;;;22.14;54.10;101062.44;4983344;28;96930;-52
2022/07/01 03:29:45;;;;;;;1.30;1.20;;;;;;;22.11;54.11;101085.97;5004638;28;97152;-52
2022/07/01 03:32:11;;;;;;;1.37;1.27;;;;;;;22.09;54.19;101093.44;5001868;28;98689;-50
2022/07/01 03:34:41;;;;;;;0.97;0.97;;;;;;;22.08;54.11;101081.47;4997080;28;96756;-50
2022/07/01 03:37:08;;;;;;;1.27;1.17;;;;;;;22.06;54.04;101078.50;4997346;28;97106;-50
2022/07/01 03:39:35;;;;;;;1.93;0.90;;;;;;;22.03;54.21;101084.50;4998764;28;96891;-49
2022/07/01 03:42:01;;;;;;;0.80;0.80;;;;;;;21.99;54.10;101090.47;4998288;28;97791;-52
2022/07/01 03:44:27;;;;;;;0.83;0.83;;;;;;;21.98;54.11;101107.84;4996032;28;97195;-52
2022/07/01 03:46:53;;;;;;;1.10;1.00;;;;;;;21.92;54.09;101112.88;4986779;28;96906;-51
2022/07/01 03:49:18;;;;;;;1.80;0.93;;;;;;;21.90;54.30;101116.25;5002380;28;97148;-51
2022/07/01 03:51:43;;;;;;;1.63;1.30;;;;;;;21.84;54.39;101120.56;5002188;28;97103;-52
2022/07/01 03:56:53;;;;;;;1.80;1.30;;;;;;;21.67;54.92;101133.00;4999521;28;96595;-51
2022/07/01 03:59:18;;;;;;;2.07;0.80;;;;;;;21.63;55.03;101121.44;5001653;28;97455;-51
2022/07/01 04:01:44;;;;;;;1.77;1.10;;;;;;;21.59;55.07;101129.47;5002511;28;96972;-50
2022/07/01 04:04:09;;;;;;;1.20;0.73;;;;;;;21.53;55.31;101139.34;4996395;28;96874;-51
2022/07/01 04:06:36;;;;;;;4.90;0.80;;;;;;;21.52;55.40;101135.03;4997267;28;97519;-50
2022/07/01 04:09:02;;;;;;;3.17;1.17;;;;;;;21.48;55.52;101140.25;4997215;28;97497;-50
2022/07/01 04:11:28;;;;;;;1.20;1.10;;;;;;;21.41;55.46;101141.00;5007336;28;96837;-49
2022/07/01 04:13:53;;;;;;;1.23;0.90;;;;;;;21.36;55.52;101141.94;5003404;28;97227;-49
2022/07/01 04:16:20;;;;;;;0.87;0.87;;;;;;;21.29;55.68;101151.81;5000722;28;97219;-50
2022/07/01 04:18:49;;;;;;;0.93;0.93;;;;;;;21.26;55.69;101163.34;4997075;28;97109;-50
2022/07/01 04:23:58;;;;;;;1.20;1.10;;;;;;;21.16;55.88;101184.78;4995061;28;97432;-51
2022/07/01 04:26:24;;;;;;;0.97;0.97;;;;;;;21.14;55.78;101188.13;4995436;28;97279;-51
2022/07/01 04:28:54;;;;;;;3.50;1.73;;;;;;;21.14;55.99;101185.34;4996457;28;96967;-51
2022/07/01 04:31:20;;;;;;;1.17;1.07;;;;;;;21.13;55.95;101192.22;5001515;28;97508;-51
2022/07/01 04:33:48;;;;;;;1.57;1.00;;;;;;;21.09;55.87;101175.03;4994588;28;97273;-52
2022/07/01 04:36:13;;;;;;;0.93;0.93;;;;;;;21.08;56.08;101175.59;5002500;28;97080;-51
2022/07/01 04:38:39;;;;;;;1.73;1.10;;;;;;;21.03;56.17;101187.66;4999529;28;97236;-51
2022/07/01 04:43:48;;;;;;;1.30;1.20;;;;;;;20.98;56.04;101200.50;4998783;28;100293;-51
2022/07/01 04:46:14;;;;;;;1.20;1.00;;;;;;;20.90;56.13;101189.28;5001156;28;97142;-51
2022/07/01 04:48:40;;;;;;;1.10;1.00;;;;;;;20.86;56.21;101191.69;4999577;28;97155;-51
2022/07/01 04:51:05;;;;;;;1.73;0.87;;;;;;;20.83;56.34;101192.03;4985848;28;99942;-51
2022/07/01 04:53:31;;;;;;;1.27;1.10;;;;;;;20.81;56.26;101194.66;5006739;28;96787;-51
2022/07/01 04:55:56;;;;;;;1.00;0.80;;;;;;;20.77;56.27;101200.56;4999386;28;96763;-51
2022/07/01 04:58:21;;;;;;;1.00;0.90;;;;;;;20.77;56.51;101200.56;4993729;28;97224;-51
2022/07/01 05:00:48;;;;;;;0.80;0.80;;;;;;;20.76;56.37;101210.28;4994005;28;98513;-51
2022/07/01 05:03:14;;;;;;;2.13;0.90;;;;;;;20.71;56.61;101202.78;4991432;28;97957;-52
2022/07/01 05:05:39;;;;;;;0.70;0.70;;;;;;;20.67;56.58;101199.59;4995057;28;96787;-51
2022/07/01 05:08:05;;;;;;;2.20;0.70;;;;;;;20.66;56.65;101211.34;4994477;28;97610;-51
2022/07/01 05:10:30;;;;;;;0.90;0.80;;;;;;;20.62;56.83;101208.88;4994110;28;96979;-51
2022/07/01 05:12:55;;;;;;;1.77;0.70;;;;;;;20.60;56.66;101213.50;4997723;28;96867;-51
2022/07/01 05:15:21;;;;;;;2.63;0.93;;;;;;;20.59;56.70;101221.19;4993031;28;99179;-51
2022/07/01 05:23:14;;;;;;;0.90;0.80;;;;;;;20.50;56.75;101232.09;4991186;28;96966;-50
2022/07/01 05:25:39;;;;;;;0.80;0.60;;;;;;;20.48;56.76;101235.44;4989557;28;97190;-51
2022/07/01 05:28:04;;;;;;;2.23;0.80;;;;;;;20.49;56.71;101241.75;4997251;28;103272;-51
2022/07/01 05:30:30;;;;;;;1.07;0.70;;;;;;;20.47;56.93;101233.94;4992311;28;97484;-51
2022/07/01 05:32:55;;;;;;;1.23;0.80;;;;;;;20.48;57.09;101235.44;4996969;28;98410;-51
2022/07/01 05:35:20;;;;;;;1.40;1.07;;;;;;;20.48;56.92;101235.44;4999574;28;97385;-51
2022/07/01 05:37:46;;;;;;;1.10;0.97;;;;;;;20.49;57.06;101241.75;5001744;28;97456;-51
2022/07/01 05:40:11;;;;;;;0.80;0.70;;;;;;;20.47;57.03;101225.53;4997583;28;97924;-51
2022/07/01 05:42:37;;;;;;;3.00;1.07;;;;;;;20.45;57.04;101230.19;4993148;28;97110;-51
2022/07/01 05:45:02;;;;;;;1.17;1.07;;;;;;;20.42;57.35;101220.84;4990651;28;104990;-51
2022/07/01 05:47:28;;;;;;;1.17;1.07;;;;;;;20.38;57.22;101220.44;4989721;28;96754;-51
2022/07/01 05:49:53;;;;;;;1.20;1.10;;;;;;;20.33;57.39;101229.72;4990874;28;97228;-51
2022/07/01 05:52:18;;;;;;;1.00;1.00;;;;;;;20.34;57.49;101231.22;4992990;28;97187;-50
2022/07/01 05:54:44;;;;;;;1.20;1.20;;;;;;;20.35;57.57;101218.75;4990273;28;97187;-51
2022/07/01 05:57:09;;;;;;;1.60;1.50;;;;;;;20.37;57.41;101223.78;4996377;28;97319;-50
2022/07/01 05:59:35;;;;;;;1.20;1.20;;;;;;;20.35;57.54;101221.56;4999342;28;98552;-51
2022/07/01 06:02:01;;;;;;;2.70;1.43;;;;;;;20.34;57.47;101228.41;4996362;28;97084;-51
2022/07/01 06:04:26;;;;;;;2.90;1.30;;;;;;;20.31;57.56;101237.16;4990500;28;97041;-51
2022/07/01 06:06:51;;;;;;;2.40;1.33;;;;;;;20.31;57.73;101235.13;4991115;28;96854;-51
2022/07/01 06:09:17;;;;;;;0.90;0.90;;;;;;;20.33;57.69;101254.13;4986816;28;98818;-49
2022/07/01 06:11:42;;;;;;;1.40;1.30;;;;;;;20.34;57.46;101250.03;4987904;28;97117;-51
2022/07/01 06:14:07;;;;;;;1.10;1.10;;;;;;;20.35;57.65;101271.09;4994858;28;96840;-50
2022/07/01 06:16:33;;;;;;;3.37;1.63;;;;;;;20.34;57.52;101275.94;4996992;28;97384;-52
2022/07/01 06:18:59;;;;;;;3.43;1.60;;;;;;;20.35;57.60;101271.84;4996304;28;97095;-54
2022/07/01 06:21:24;;;;;;;1.83;1.73;;;;;;;20.37;57.89;101277.66;4996273;28;97645;-51
2022/07/01 06:23:49;;;;;;;1.60;1.60;;;;;;;20.33;57.62;101268.09;4996264;28;97087;-50
2022/07/01 06:26:15;;;;;;;2.50;2.30;;;;;;;20.28;57.60;101271.78;4999548;28;97079;-50
2022/07/01 06:28:41;;;;;;;2.13;2.00;;;;;;;20.23;57.76;101276.19;4996836;28;98005;-50
2022/07/01 06:31:07;;;;;;;1.73;1.63;;;;;;;20.21;57.83;101278.78;4996934;28;96910;-50
2022/07/01 06:33:33;;;;;;;1.67;1.57;;;;;;;20.23;57.96;101276.19;4997138;28;97222;-50
2022/07/01 06:35:58;;;;;;;2.13;2.03;;;;;;;20.27;57.78;101270.28;4995305;28;97113;-51
2022/07/01 06:38:24;;;;;;;1.73;1.63;;;;;;;20.31;57.91;101263.06;4994445;28;97043;-50
2022/07/01 06:43:34;;;;;;;2.13;1.87;;;;;;;20.43;57.75;101261.47;4997496;28;97163;-50
2022/07/01 06:46:00;;;;;;;1.57;1.47;;;;;;;20.48;57.71;101266.19;5002540;28;96908;-50
2022/07/01 06:48:25;;;;;;;1.67;1.57;;;;;;;20.48;57.74;101254.25;4998599;28;96908;-50
2022/07/01 06:50:50;;;;;;;1.30;1.30;;;;;;;20.42;57.95;101262.75;5000263;28;97428;-51
2022/07/01 06:53:16;;;;;;;12.27;1.90;;;;;;;20.41;57.98;101266.13;4997851;28;97010;-51
2022/07/01 06:55:41;;;;;;;2.00;1.90;;;;;;;20.40;58.11;101264.63;4991171;28;97290;-51
2022/07/01 06:58:07;;;;;;;3.00;1.70;;;;;;;20.38;58.27;101270.03;4998550;28;98689;-50
2022/07/01 07:00:32;;;;;;;1.93;1.83;;;;;;;20.36;58.34;101272.59;4994286;28;101032;-51
2022/07/01 07:02:58;;;;;;;2.10;2.00;;;;;;;20.29;58.49;101268.44;4986264;28;97167;-50
2022/07/01 07:05:23;;;;;;;1.87;1.73;;;;;;;20.34;58.23;101259.16;5000109;28;97139;-50
2022/07/01 07:07:48;;;;;;;1.33;1.33;;;;;;;20.43;58.18;101271.91;4999277;22;98987;-51
2022/07/01 07:10:14;;;;;;;1.73;1.57;;;;;;;20.42;58.35;101268.34;4982557;28;97379;-50
2022/07/01 07:12:39;;;;;;;1.90;1.80;;;;;;;20.47;58.39;101261.13;4988205;27;96869;-49
2022/07/01 07:15:05;;;;;;;2.17;2.07;;;;;;;20.46;58.46;101265.22;4976628;28;96959;-50
2022/07/01 07:17:30;;;;;;;2.57;2.37;;;;;;;20.52;58.49;101277.78;4977480;28;97616;-50
2022/07/01 07:19:56;;;;;;;2.13;1.93;;;;;;;20.62;58.47;101286.44;4976534;28;97330;-50
2022/07/01 07:22:22;;;;;;;5.63;2.30;;;;;;;20.70;58.10;101284.44;4983487;28;97412;-50
2022/07/01 07:24:47;;;;;;;2.23;2.03;;;;;;;20.72;58.26;101281.84;4976293;28;97160;-50
2022/07/01 07:27:12;;;;;;;2.23;2.13;;;;;;;20.74;58.35;101282.78;4980320;27;97477;-50
2022/07/01 07:29:39;;;;;;;4.60;2.50;;;;;;;20.73;58.24;101295.28;4981785;28;96768;-50
2022/07/01 07:32:04;;;;;;;2.70;2.17;;;;;;;20.72;58.02;101307.78;4981288;28;96881;-50
2022/07/01 07:34:29;;;;;;;3.80;2.33;;;;;;;20.67;58.10;101300.25;4978938;28;96824;-51
2022/07/01 07:36:55;;;;;;;2.57;2.37;;;;;;;20.62;57.94;101303.94;4978304;28;96925;-50
2022/07/01 07:39:20;;;;;;;2.37;2.17;;;;;;;20.54;57.86;101305.19;4978920;28;98966;-50
2022/07/01 07:41:46;;;;;;;2.50;2.30;;;;;;;20.54;57.95;101305.94;4979531;28;96858;-50
2022/07/01 07:44:11;;;;;;;2.63;2.43;;;;;;;20.52;57.87;101316.91;4978666;28;97280;-50
2022/07/01 07:46:36;;;;;;;2.73;2.57;;;;;;;20.46;58.01;101316.31;4984625;28;97344;-50
2022/07/01 07:49:02;;;;;;;2.70;2.50;;;;;;;20.45;58.14;101306.41;4977191;28;97050;-50
2022/07/01 07:51:27;;;;;;;2.93;2.70;;;;;;;20.50;58.24;101304.78;4987388;28;96627;-50
2022/07/01 07:53:52;;;;;;;2.63;2.43;;;;;;;20.49;58.23;101309.59;4981723;28;97342;-50
2022/07/01 07:56:18;;;;;;;3.73;2.33;;;;;;;20.47;58.24;101334.56;4981092;28;97312;-50
2022/07/01 07:58:43;;;;;;;3.17;3.00;;;;;;;20.43;58.13;101348.13;4982505;28;97444;-50
2022/07/01 08:01:09;;;;;;;2.80;2.60;;;;;;;20.42;58.10;101366.19;4981546;27;97377;-49
2022/07/01 08:03:35;;;;;;;2.80;2.67;;;;;;;20.42;58.01;101377.38;4978804;27;97577;-49
2022/07/01 08:06:00;;;;;;;3.40;3.20;;;;;;;20.41;57.94;101386.31;4980491;27;98601;-50
2022/07/01 08:08:27;;;;;;;3.40;3.20;;;;;;;20.37;58.06;101392.25;4985270;27;97337;-49
2022/07/01 08:10:53;;;;;;;4.00;3.60;;;;;;;20.33;58.07;101403.03;4988085;28;96777;-49
2022/07/01 08:13:18;;;;;;;4.03;3.83;;;;;;;20.34;58.24;101403.75;4983059;28;97053;-50
2022/07/01 08:15:43;;;;;;;4.60;4.20;;;;;;;20.35;58.31;101403.22;4978216;27;98570;-49
2022/07/01 08:18:09;;;;;;;3.40;3.20;;;;;;;20.32;58.28;101387.53;4971224;28;97062;-50
2022/07/01 08:20:34;;;;;;;4.10;3.70;;;;;;;20.31;58.31;101388.84;4980102;28;97468;-50
2022/07/01 08:23:00;;;;;;;4.00;3.70;;;;;;;20.33;58.16;101382.69;4977855;28;96957;-49
2022/07/01 08:25:25;;;;;;;4.27;3.97;;;;;;;20.32;58.14;101383.97;4977346;28;97471;-50
2022/07/01 08:27:50;;;;;;;4.03;3.83;;;;;;;20.27;58.26;101388.41;4976159;28;97245;-50
2022/07/01 08:30:16;;;;;;;4.67;4.37;;;;;;;20.29;58.54;101391.41;4978860;28;99269;-49
2022/07/01 08:32:41;;;;;;;4.30;4.00;;;;;;;20.32;58.43;101404.28;4982693;28;97213;-49
2022/07/01 08:35:07;;;;;;;4.67;4.27;;;;;;;20.33;58.36;101402.25;4979503;28;110095;-49
2022/07/01 08:37:32;;;;;;;4.70;4.30;;;;;;;20.31;58.19;101402.81;4970320;28;96975;-49
2022/07/01 08:39:59;;;;;;;4.50;4.20;;;;;;;20.31;58.37;101399.25;4979163;27;97325;-49
2022/07/01 08:42:24;;;;;;;5.33;4.97;;;;;;;20.35;58.36;101392.03;4972554;28;96998;-49
2022/07/01 08:44:49;;;;;;;4.40;4.17;;;;;;;20.39;58.48;101380.50;4975212;28;97269;-50
2022/07/01 08:47:15;;;;;;;4.77;4.37;;;;;;;20.43;58.52;101375.34;4975772;28;97274;-50
2022/07/01 08:49:41;;;;;;;5.10;4.73;;;;;;;20.44;58.65;101366.44;4975312;28;97105;-50
2022/07/01 08:52:09;;;;;;;5.07;4.57;;;;;;;20.47;58.66;101362.53;4979905;28;96895;-50
2022/07/01 08:54:37;;;;;;;5.00;4.60;;;;;;;20.53;58.44;101360.34;4975025;28;97408;-50
2022/07/01 08:57:03;;;;;;;4.53;4.23;;;;;;;20.56;58.47;101367.66;4972250;28;98451;-50
2022/07/01 08:59:28;;;;;;;4.57;4.37;;;;;;;20.61;58.49;101366.00;4971245;28;96989;-49
2022/07/01 09:01:59;;;;;;;5.00;4.43;;;;;;;20.61;58.33;101371.59;4974234;28;97346;-50
2022/07/01 09:04:26;;;;;;;5.37;4.90;;;;;;;20.60;58.39;101370.09;4971448;28;98583;-50
2022/07/01 09:06:51;;;;;;;4.70;4.40;;;;;;;20.57;58.39;101376.78;4969099;28;97060;-50
2022/07/01 09:09:19;;;;;;;4.90;4.60;;;;;;;20.57;58.16;101380.34;4975913;28;96875;-49
2022/07/01 09:11:53;;;;;;;5.30;4.83;;;;;;;20.50;58.33;101386.59;4976072;28;97072;-49
2022/07/01 09:14:21;;;;;;;5.20;4.80;;;;;;;20.47;58.26;101387.69;4975924;28;101934;-50
2022/07/01 09:16:48;;;;;;;4.70;4.40;;;;;;;20.48;58.33;101388.44;4978854;28;97127;-50
2022/07/01 09:19:17;;;;;;;4.50;4.20;;;;;;;20.43;58.26;101401.25;4971583;28;97063;-49
2022/07/01 09:21:48;;;;;;;4.83;4.53;;;;;;;20.38;58.16;101404.91;4976477;28;96887;-49
2022/07/01 09:24:29;;;;;;;5.10;4.80;;;;;;;20.32;58.18;101406.34;4972436;28;98552;-49
2022/07/01 09:27:12;;;;;;;5.37;4.97;;;;;;;20.32;58.40;101409.13;4977725;28;96851;-49
2022/07/01 09:29:42;;;;;;;5.10;4.67;;;;;;;20.29;58.13;101413.03;4970014;28;97111;-50
2022/07/01 09:32:11;;;;;;;5.83;5.43;;;;;;;20.30;58.29;101415.28;4978042;28;97037;-50
2022/07/01 09:34:46;;;;;;;5.67;5.27;;;;;;;20.35;58.87;101417.19;4972789;28;102130;-50
2022/07/01 09:37:17;;;;;;;5.03;4.70;;;;;;;20.36;58.51;101424.28;4975110;28;100404;-50
2022/07/01 09:39:54;;;;;;;5.30;4.90;;;;;;;20.39;58.40;101431.59;4977756;28;96938;-49
2022/07/01 09:42:21;;;;;;;5.50;5.10;;;;;;;20.39;58.39;101437.19;4975949;27;96976;-49
2022/07/01 09:45:02;;;;;;;4.13;3.93;;;;;;;20.46;58.27;101433.72;4972890;28;100341;-49
2022/07/01 09:47:28;;;;;;;5.47;5.07;;;;;;;20.48;58.48;101442.31;4970402;28;101751;-49
2022/07/01 09:49:54;;;;;;;5.20;4.80;;;;;;;20.53;58.23;101454.66;4975286;27;96861;-49
2022/07/01 09:52:21;;;;;;;5.43;5.10;;;;;;;20.56;58.06;101454.31;4974361;28;97393;-49
2022/07/01 09:54:47;;;;;;;5.70;5.20;;;;;;;20.58;58.19;101456.56;4980543;27;97446;-50
2022/07/01 09:57:13;;;;;;;6.10;5.70;;;;;;;20.60;57.90;101459.56;4978171;28;97015;-50
2022/07/01 09:59:39;;;;;;;5.67;5.17;;;;;;;20.60;57.93;101459.56;4980254;28;96847;-50
2022/07/01 10:02:07;;;;;;;5.47;5.07;;;;;;;20.61;57.76;101463.88;4980771;28;98124;-50
2022/07/01 10:04:36;;;;;;;5.23;4.83;;;;;;;20.57;57.79;101474.66;4981156;28;101266;-49
2022/07/01 10:07:11;;;;;;;5.27;4.83;;;;;;;20.53;57.76;101472.16;4975396;28;96873;-49
2022/07/01 10:09:55;;;;;;;4.80;4.50;;;;;;;20.50;57.95;101478.09;4975969;28;98256;-50
2022/07/01 10:12:38;;;;;;;4.60;4.33;;;;;;;20.46;57.73;101481.25;4974865;28;96723;-49
2022/07/01 10:15:06;;;;;;;5.10;4.80;;;;;;;20.50;57.97;101483.69;4982260;27;97327;-48
2022/07/01 10:17:36;;;;;;;5.27;4.87;;;;;;;20.50;57.95;101483.69;4972950;27;97271;-49
2022/07/01 10:20:11;;;;;;;6.20;5.70;;;;;;;20.48;57.60;101494.69;4983213;27;97317;-50
2022/07/01 10:22:38;;;;;;;5.03;4.63;;;;;;;20.51;57.79;101490.81;4982367;28;97164;-50
2022/07/01 10:25:32;;;;;;;5.13;4.73;;;;;;;20.51;57.90;101494.34;4983389;27;97119;-49
2022/07/01 10:28:17;;;;;;;5.60;4.40;;;;;;;20.57;57.87;101494.22;4983105;28;101621;-49
2022/07/01 10:31:05;;;;;;;4.47;4.07;;;;;;;20.61;58.10;101498.19;4977971;28;96806;-50
2022/07/01 10:33:50;;;;;;;6.17;5.57;;;;;;;20.62;57.65;101496.16;4980246;28;97018;-49
2022/07/01 10:36:21;;;;;;;6.13;5.63;;;;;;;20.57;57.77;101491.44;4975956;28;100580;-49
2022/07/01 10:41:33;;;;;;;9.50;6.00;;;;;;;20.54;57.82;101493.25;4976666;28;96994;-50
2022/07/01 10:44:02;;;;;;;8.00;6.43;;;;;;;20.59;57.67;101491.63;4986552;28;97214;-49
2022/07/01 10:46:49;;;;;;;6.10;5.50;;;;;;;20.57;57.53;101480.25;4975979;28;97200;-49
2022/07/01 10:49:18;;;;;;;9.00;6.03;;;;;;;20.54;57.40;101476.47;4982859;28;101791;-49
2022/07/01 10:51:54;;;;;;;7.00;6.30;;;;;;;20.51;57.31;101471.97;4980250;27;97121;-49
2022/07/01 10:54:39;;;;;;;8.10;7.03;;;;;;;20.49;57.93;101468.97;4980780;28;97093;-49
2022/07/01 10:57:16;;;;;;;6.23;5.73;;;;;;;20.48;57.80;101459.09;4978573;28;100555;-50
2022/07/01 10:59:43;;;;;;;5.20;4.80;;;;;;;20.54;57.51;101473.69;4977464;28;96885;-49
2022/07/01 11:02:13;;;;;;;8.50;6.90;;;;;;;20.65;57.30;101467.84;4986096;28;97093;-49
2022/07/01 11:04:39;;;;;;;6.57;6.03;;;;;;;20.77;57.18;101465.56;4977704;28;96919;-49
2022/07/01 11:07:04;;;;;;;7.23;6.57;;;;;;;20.86;56.97;101465.06;4984259;28;97173;-50
2022/07/01 11:09:30;;;;;;;7.60;6.70;;;;;;;20.92;57.17;101466.44;4980900;28;96810;-49
2022/07/01 11:11:56;;;;;;;6.70;6.00;;;;;;;21.05;57.05;101476.84;4982671;28;97246;-50
2022/07/01 11:14:22;;;;;;;6.60;6.10;;;;;;;21.10;56.61;101466.81;4980095;28;97217;-50
2022/07/01 11:16:48;;;;;;;8.43;7.67;;;;;;;21.17;56.51;101466.13;4976318;28;96862;-50
2022/07/01 11:19:17;;;;;;;6.77;6.20;;;;;;;21.19;56.70;101461.47;4986454;28;97865;-53
2022/07/01 11:21:52;;;;;;;8.10;7.40;;;;;;;21.27;56.06;101469.94;4979721;28;97076;-49
2022/07/01 11:24:18;;;;;;;6.30;5.80;;;;;;;21.33;56.48;101473.34;4988036;27;97355;-50
2022/07/01 11:26:44;;;;;;;8.40;6.90;;;;;;;21.31;56.50;101475.94;4983392;27;101145;-50
2022/07/01 11:29:10;;;;;;;6.20;5.70;;;;;;;21.34;56.47;101480.47;4987019;28;97038;-49
2022/07/01 11:31:36;;;;;;;6.17;5.67;;;;;;;21.42;56.62;101479.22;4985999;28;97135;-50
2022/07/01 11:34:02;;;;;;;5.57;5.07;;;;;;;21.53;56.55;101492.94;4972406;28;96775;-52
2022/07/01 11:39:23;;;;;;;5.87;5.37;;;;;;;21.82;56.37;101492.94;4952375;28;101432;-50
2022/07/01 11:41:56;;;;;;;5.97;5.47;;;;;;;21.88;55.90;101491.53;4978315;28;97267;-48
2022/07/01 11:44:36;;;;;;;5.47;4.93;;;;;;;22.02;55.30;101489.34;4977281;28;96712;-50